Armilla, Spain
Current Conditions -  °F | °C
As of 6:00 PM on Sunday 23 Nov 2014 (Local Time) from LEGR Reporting Station
Scattered Clouds Scattered Clouds  
Wind Chill: 64°   Ceiling: Unl
Heat Index: 64°   Visibility: 6mi
Dew Point: 52°   Wind: 7mph
Humidity: 64%   Direction: 160°SSE
Pressure: 29.85"   Gusts: NA
Location:  37.14°N, 3.62°W
Report Text: LEGR 231700Z 16006KT 130V210 9999 FEW060 SCT100 18/11 Q1011
Loading
Personal Weather Stations






























Interactive Weather Map New forecast layout! Learn more

10-Day Weather Forecast

Advertisements
Track Severe Weather on mobile